sensor_id;sensor_type;location;lat;lon;timestamp;pressure;altitude;pressure_sealevel;temperature;humidity
18569;BME280;14780;48.316;-1.050;2023-04-03T00:02:19;100134.63;;;24.02;40.17
18569;BME280;14780;48.316;-1.050;2023-04-03T00:05:04;100139.25;;;24.02;40.13
18569;BME280;14780;48.316;-1.050;2023-04-03T00:07:49;100137.94;;;24.04;40.11
18569;BME280;14780;48.316;-1.050;2023-04-03T00:10:35;100141.19;;;24.01;40.00
18569;BME280;14780;48.316;-1.050;2023-04-03T00:13:20;100138.44;;;24.01;40.08
18569;BME280;14780;48.316;-1.050;2023-04-03T00:16:06;100135.13;;;23.99;39.91
18569;BME280;14780;48.316;-1.050;2023-04-03T00:18:51;100133.78;;;24.02;40.09
18569;BME280;14780;48.316;-1.050;2023-04-03T00:21:35;100137.03;;;23.99;40.05
18569;BME280;14780;48.316;-1.050;2023-04-03T00:24:20;100129.66;;;23.99;39.99
18569;BME280;14780;48.316;-1.050;2023-04-03T00:27:05;100127.75;;;24.00;39.84
18569;BME280;14780;48.316;-1.050;2023-04-03T00:29:49;100126.94;;;23.99;39.86
18569;BME280;14780;48.316;-1.050;2023-04-03T00:32:34;100128.59;;;24.00;39.71
18569;BME280;14780;48.316;-1.050;2023-04-03T00:35:20;100116.00;;;23.99;39.75
18569;BME280;14780;48.316;-1.050;2023-04-03T00:38:05;100125.25;;;23.98;39.80
18569;BME280;14780;48.316;-1.050;2023-04-03T00:40:50;100120.63;;;23.99;39.79
18569;BME280;14780;48.316;-1.050;2023-04-03T00:43:35;100119.78;;;23.98;39.65
18569;BME280;14780;48.316;-1.050;2023-04-03T00:46:19;100122.78;;;23.97;39.73
18569;BME280;14780;48.316;-1.050;2023-04-03T00:49:05;100119.22;;;23.96;39.67
18569;BME280;14780;48.316;-1.050;2023-04-03T00:51:49;100121.94;;;23.96;39.81
18569;BME280;14780;48.316;-1.050;2023-04-03T00:54:36;100123.59;;;23.97;39.73
18569;BME280;14780;48.316;-1.050;2023-04-03T00:57:22;100112.94;;;23.96;39.53
18569;BME280;14780;48.316;-1.050;2023-04-03T01:00:10;100117.00;;;23.93;39.67
18569;BME280;14780;48.316;-1.050;2023-04-03T01:02:55;100118.63;;;23.94;39.55
18569;BME280;14780;48.316;-1.050;2023-04-03T01:05:40;100120.28;;;23.95;39.44
18569;BME280;14780;48.316;-1.050;2023-04-03T01:08:25;100112.09;;;23.95;39.53
18569;BME280;14780;48.316;-1.050;2023-04-03T01:11:10;100111.53;;;23.93;39.53
18569;BME280;14780;48.316;-1.050;2023-04-03T01:13:55;100110.69;;;23.93;39.52
18569;BME280;14780;48.316;-1.050;2023-04-03T01:16:40;100112.31;;;23.94;39.55
18569;BME280;14780;48.316;-1.050;2023-04-03T01:19:25;100105.22;;;23.93;39.36
18569;BME280;14780;48.316;-1.050;2023-04-03T01:22:26;100095.13;;;23.93;39.42
18569;BME280;14780;48.316;-1.050;2023-04-03T01:25:14;100099.75;;;23.93;39.40
18569;BME280;14780;48.316;-1.050;2023-04-03T01:27:59;100102.25;;;23.94;39.45
18569;BME280;14780;48.316;-1.050;2023-04-03T01:33:37;100092.88;;;23.90;39.29
18569;BME280;14780;48.316;-1.050;2023-04-03T01:36:25;100099.41;;;23.89;39.25
18569;BME280;14780;48.316;-1.050;2023-04-03T01:39:10;100102.16;;;23.89;39.29
18569;BME280;14780;48.316;-1.050;2023-04-03T01:41:55;100089.31;;;23.90;39.19
18569;BME280;14780;48.316;-1.050;2023-04-03T01:44:40;100089.44;;;23.83;39.19
18569;BME280;14780;48.316;-1.050;2023-04-03T01:47:24;100085.19;;;23.87;39.13
18569;BME280;14780;48.316;-1.050;2023-04-03T01:50:09;100079.09;;;23.85;39.18
18569;BME280;14780;48.316;-1.050;2023-04-03T01:52:54;100080.78;;;23.86;39.13
18569;BME280;14780;48.316;-1.050;2023-04-03T01:55:39;100079.09;;;23.85;39.08
18569;BME280;14780;48.316;-1.050;2023-04-03T01:58:24;100072.78;;;23.85;39.07
18569;BME280;14780;48.316;-1.050;2023-04-03T02:01:09;100075.53;;;23.85;38.99
18569;BME280;14780;48.316;-1.050;2023-04-03T02:03:54;100076.38;;;23.85;38.87
18569;BME280;14780;48.316;-1.050;2023-04-03T02:06:39;100076.63;;;23.84;38.88
18569;BME280;14780;48.316;-1.050;2023-04-03T02:09:24;100071.38;;;23.82;38.93
18569;BME280;14780;48.316;-1.050;2023-04-03T02:12:09;100072.22;;;23.83;38.91
18569;BME280;14780;48.316;-1.050;2023-04-03T02:14:53;100065.91;;;23.82;38.78
18569;BME280;14780;48.316;-1.050;2023-04-03T02:17:38;100065.09;;;23.82;38.81
18569;BME280;14780;48.316;-1.050;2023-04-03T02:20:22;100057.16;;;23.80;38.84
18569;BME280;14780;48.316;-1.050;2023-04-03T02:23:07;100060.44;;;23.82;38.94
18569;BME280;14780;48.316;-1.050;2023-04-03T02:25:52;100049.53;;;23.82;38.87
18569;BME280;14780;48.316;-1.050;2023-04-03T02:28:37;100052.53;;;23.81;38.76
18569;BME280;14780;48.316;-1.050;2023-04-03T02:31:22;100050.84;;;23.80;38.82
18569;BME280;14780;48.316;-1.050;2023-04-03T02:34:08;100042.91;;;23.78;38.71
18569;BME280;14780;48.316;-1.050;2023-04-03T02:36:53;100057.66;;;23.77;38.78
18569;BME280;14780;48.316;-1.050;2023-04-03T02:39:37;100055.16;;;23.76;38.67
18569;BME280;14780;48.316;-1.050;2023-04-03T02:42:22;100053.00;;;23.78;38.68
18569;BME280;14780;48.316;-1.050;2023-04-03T02:45:07;100050.03;;;23.79;38.69
18569;BME280;14780;48.316;-1.050;2023-04-03T02:47:51;100053.00;;;23.78;38.75
18569;BME280;14780;48.316;-1.050;2023-04-03T02:50:36;100052.44;;;23.76;38.66
18569;BME280;14780;48.316;-1.050;2023-04-03T02:53:21;100043.16;;;23.77;38.68
18569;BME280;14780;48.316;-1.050;2023-04-03T02:56:06;100049.69;;;23.76;38.57
18569;BME280;14780;48.316;-1.050;2023-04-03T02:58:51;100051.84;;;23.74;38.52
18569;BME280;14780;48.316;-1.050;2023-04-03T03:01:35;100051.84;;;23.74;38.51
18569;BME280;14780;48.316;-1.050;2023-04-03T03:04:20;100041.16;;;23.72;38.49
18569;BME280;14780;48.316;-1.050;2023-04-03T03:07:05;100045.78;;;23.72;38.48
18569;BME280;14780;48.316;-1.050;2023-04-03T03:09:50;100049.84;;;23.69;38.46
18569;BME280;14780;48.316;-1.050;2023-04-03T03:12:35;100050.19;;;23.73;38.38
18569;BME280;14780;48.316;-1.050;2023-04-03T03:15:20;100051.03;;;23.73;38.34
18569;BME280;14780;48.316;-1.050;2023-04-03T03:18:04;100048.28;;;23.73;38.30
18569;BME280;14780;48.316;-1.050;2023-04-03T03:20:53;100047.44;;;23.73;38.23
18569;BME280;14780;48.316;-1.050;2023-04-03T03:23:39;100047.72;;;23.71;38.25
18569;BME280;14780;48.316;-1.050;2023-04-03T03:26:24;100048.28;;;23.73;38.26
18569;BME280;14780;48.316;-1.050;2023-04-03T03:29:09;100047.13;;;23.69;38.12
18569;BME280;14780;48.316;-1.050;2023-04-03T03:31:54;100046.53;;;23.67;38.24
18569;BME280;14780;48.316;-1.050;2023-04-03T03:34:39;100042.41;;;23.65;38.28
18569;BME280;14780;48.316;-1.050;2023-04-03T03:37:24;100038.00;;;23.64;38.20
18569;BME280;14780;48.316;-1.050;2023-04-03T03:40:09;100045.41;;;23.63;38.26
18569;BME280;14780;48.316;-1.050;2023-04-03T03:42:55;100045.41;;;23.63;38.17
18569;BME280;14780;48.316;-1.050;2023-04-03T03:45:40;100044.56;;;23.63;38.09
18569;BME280;14780;48.316;-1.050;2023-04-03T03:48:24;100040.97;;;23.62;38.13
18569;BME280;14780;48.316;-1.050;2023-04-03T03:51:09;100042.06;;;23.61;38.18
18569;BME280;14780;48.316;-1.050;2023-04-03T03:53:54;100037.19;;;23.63;38.10
18569;BME280;14780;48.316;-1.050;2023-04-03T03:56:39;100030.56;;;23.59;37.91
18569;BME280;14780;48.316;-1.050;2023-04-03T03:59:24;100039.94;;;23.63;37.99
18569;BME280;14780;48.316;-1.050;2023-04-03T04:02:09;100037.78;;;23.65;37.82
18569;BME280;14780;48.316;-1.050;2023-04-03T04:04:54;100033.38;;;23.64;37.78
18569;BME280;14780;48.316;-1.050;2023-04-03T04:07:39;100028.50;;;23.66;37.73
18569;BME280;14780;48.316;-1.050;2023-04-03T04:10:24;100033.97;;;23.66;37.69
18569;BME280;14780;48.316;-1.050;2023-04-03T04:13:08;100033.97;;;23.66;37.61
18569;BME280;14780;48.316;-1.050;2023-04-03T04:15:53;100031.22;;;23.66;37.57
18569;BME280;14780;48.316;-1.050;2023-04-03T04:18:37;100030.66;;;23.64;37.73
18569;BME280;14780;48.316;-1.050;2023-04-03T04:21:22;100036.13;;;23.64;37.64
18569;BME280;14780;48.316;-1.050;2023-04-03T04:24:08;100031.47;;;23.65;37.67
18569;BME280;14780;48.316;-1.050;2023-04-03T04:26:53;100030.66;;;23.64;37.55
18569;BME280;14780;48.316;-1.050;2023-04-03T04:29:37;100029.81;;;23.64;37.56
18569;BME280;14780;48.316;-1.050;2023-04-03T04:32:22;100030.91;;;23.63;37.55
18569;BME280;14780;48.316;-1.050;2023-04-03T04:35:07;100034.72;;;23.62;37.45
18569;BME280;14780;48.316;-1.050;2023-04-03T04:37:52;100035.78;;;23.61;37.34
18569;BME280;14780;48.316;-1.050;2023-04-03T04:40:36;100033.06;;;23.61;37.35
18569;BME280;14780;48.316;-1.050;2023-04-03T04:43:22;100032.22;;;23.60;37.34
18569;BME280;14780;48.316;-1.050;2023-04-03T04:46:09;100033.28;;;23.59;37.29
18569;BME280;14780;48.316;-1.050;2023-04-03T04:48:56;100034.13;;;23.60;37.31
18569;BME280;14780;48.316;-1.050;2023-04-03T04:51:40;100030.56;;;23.59;37.48
18569;BME280;14780;48.316;-1.050;2023-04-03T04:54:25;100032.44;;;23.59;37.35
18569;BME280;14780;48.316;-1.050;2023-04-03T04:57:09;100032.44;;;23.59;37.38
18569;BME280;14780;48.316;-1.050;2023-04-03T04:59:55;100035.44;;;23.57;37.26
18569;BME280;14780;48.316;-1.050;2023-04-03T05:02:40;100033.81;;;23.56;37.36
18569;BME280;14780;48.316;-1.050;2023-04-03T05:05:24;100028.34;;;23.56;37.38
18569;BME280;14780;48.316;-1.050;2023-04-03T05:08:09;100028.06;;;23.58;37.34
18569;BME280;14780;48.316;-1.050;2023-04-03T05:10:53;100022.38;;;23.59;37.30
18569;BME280;14780;48.316;-1.050;2023-04-03T05:13:38;100034.38;;;23.58;37.18
18569;BME280;14780;48.316;-1.050;2023-04-03T05:16:23;100032.44;;;23.59;37.19
18569;BME280;14780;48.316;-1.050;2023-04-03T05:19:08;100037.91;;;23.59;37.26
18569;BME280;14780;48.316;-1.050;2023-04-03T05:21:53;100040.41;;;23.60;37.17
18569;BME280;14780;48.316;-1.050;2023-04-03T05:24:38;100040.66;;;23.59;37.17
18569;BME280;14780;48.316;-1.050;2023-04-03T05:27:22;100045.88;;;23.60;37.13
18569;BME280;14780;48.316;-1.050;2023-04-03T05:30:09;100034.94;;;23.60;37.22
18569;BME280;14780;48.316;-1.050;2023-04-03T05:32:53;100031.97;;;23.62;37.00
18569;BME280;14780;48.316;-1.050;2023-04-03T05:35:38;100036.03;;;23.59;37.11
18569;BME280;14780;48.316;-1.050;2023-04-03T05:38:24;100032.22;;;23.60;37.06
18569;BME280;14780;48.316;-1.050;2023-04-03T05:41:09;100029.47;;;23.60;37.06
18569;BME280;14780;48.316;-1.050;2023-04-03T05:43:54;100036.03;;;23.59;37.02
18569;BME280;14780;48.316;-1.050;2023-04-03T05:46:38;100020.94;;;23.57;37.00
18569;BME280;14780;48.316;-1.050;2023-04-03T05:49:23;100021.53;;;23.59;36.92
18569;BME280;14780;48.316;-1.050;2023-04-03T05:52:23;100037.09;;;23.58;36.88
18569;BME280;14780;48.316;-1.050;2023-04-03T05:55:10;100030.00;;;23.57;36.89
18569;BME280;14780;48.316;-1.050;2023-04-03T05:57:54;100030.47;;;23.54;36.91
18569;BME280;14780;48.316;-1.050;2023-04-03T06:00:40;100035.44;;;23.57;36.99
18569;BME280;14780;48.316;-1.050;2023-04-03T06:03:24;100036.03;;;23.59;36.98
18569;BME280;14780;48.316;-1.050;2023-04-03T06:06:13;100036.25;;;23.58;36.98
18569;BME280;14780;48.316;-1.050;2023-04-03T06:08:59;100029.47;;;23.60;36.93
18569;BME280;14780;48.316;-1.050;2023-04-03T06:11:43;100030.00;;;23.57;37.10
18569;BME280;14780;48.316;-1.050;2023-04-03T06:14:28;100037.09;;;23.58;37.05
18569;BME280;14780;48.316;-1.050;2023-04-03T06:17:14;100028.66;;;23.60;36.83
18569;BME280;14780;48.316;-1.050;2023-04-03T06:19:59;100031.06;;;23.56;36.98
18569;BME280;14780;48.316;-1.050;2023-04-03T06:22:44;100027.72;;;23.54;36.92
18569;BME280;14780;48.316;-1.050;2023-04-03T06:25:29;100031.06;;;23.56;36.95
18569;BME280;14780;48.316;-1.050;2023-04-03T06:28:16;100033.81;;;23.56;36.90
18569;BME280;14780;48.316;-1.050;2023-04-03T06:31:00;100033.81;;;23.56;36.95
18569;BME280;14780;48.316;-1.050;2023-04-03T06:33:45;100032.13;;;23.55;36.97
18569;BME280;14780;48.316;-1.050;2023-04-03T06:36:30;100026.66;;;23.55;36.90
18569;BME280;14780;48.316;-1.050;2023-04-03T06:39:22;100025.59;;;23.56;36.95
18569;BME280;14780;48.316;-1.050;2023-04-03T06:42:09;100034.03;;;23.55;36.82
18569;BME280;14780;48.316;-1.050;2023-04-03T06:44:54;100030.47;;;23.54;36.88
18569;BME280;14780;48.316;-1.050;2023-04-03T06:47:38;100036.25;;;23.58;36.93
18569;BME280;14780;48.316;-1.050;2023-04-03T06:50:24;100030.81;;;23.58;36.94
18569;BME280;14780;48.316;-1.050;2023-04-03T06:53:09;100032.97;;;23.56;36.96
18569;BME280;14780;48.316;-1.050;2023-04-03T06:55:54;100041.16;;;23.56;37.04
18569;BME280;14780;48.316;-1.050;2023-04-03T06:58:40;100037.09;;;23.58;36.90
18569;BME280;14780;48.316;-1.050;2023-04-03T07:01:27;100031.63;;;23.58;36.91
18569;BME280;14780;48.316;-1.050;2023-04-03T07:04:13;100036.25;;;23.58;36.86
18569;BME280;14780;48.316;-1.050;2023-04-03T07:06:57;100035.44;;;23.57;36.90
18569;BME280;14780;48.316;-1.050;2023-04-03T07:09:42;100031.06;;;23.56;36.90
18569;BME280;14780;48.316;-1.050;2023-04-03T07:12:27;100034.63;;;23.57;36.96
18569;BME280;14780;48.316;-1.050;2023-04-03T07:15:12;100033.28;;;23.59;36.92
18569;BME280;14780;48.316;-1.050;2023-04-03T07:17:57;100031.63;;;23.58;36.95
18569;BME280;14780;48.316;-1.050;2023-04-03T07:20:42;100034.63;;;23.57;36.86
18569;BME280;14780;48.316;-1.050;2023-04-03T07:23:27;100034.84;;;23.55;36.82
18569;BME280;14780;48.316;-1.050;2023-04-03T07:26:12;100035.94;;;23.54;36.80
18569;BME280;14780;48.316;-1.050;2023-04-03T07:28:57;100031.53;;;23.53;36.74
18569;BME280;14780;48.316;-1.050;2023-04-03T07:31:42;100032.38;;;23.54;36.87
18569;BME280;14780;48.316;-1.050;2023-04-03T07:34:27;100029.66;;;23.54;36.77
18569;BME280;14780;48.316;-1.050;2023-04-03T07:37:12;100036.44;;;23.51;36.82
18569;BME280;14780;48.316;-1.050;2023-04-03T07:39:57;100035.88;;;23.49;36.92
18569;BME280;14780;48.316;-1.050;2023-04-03T07:42:43;100036.94;;;23.48;36.85
18569;BME280;14780;48.316;-1.050;2023-04-03T07:45:28;100042.41;;;23.48;36.88
18569;BME280;14780;48.316;-1.050;2023-04-03T07:48:14;100032.47;;;23.42;36.90
18569;BME280;14780;48.316;-1.050;2023-04-03T07:51:02;100031.97;;;23.45;37.00
18569;BME280;14780;48.316;-1.050;2023-04-03T07:53:48;100031.97;;;23.45;36.89
18569;BME280;14780;48.316;-1.050;2023-04-03T07:56:33;100029.78;;;23.47;36.86
18569;BME280;14780;48.316;-1.050;2023-04-03T07:59:18;100041.00;;;23.46;36.81
18569;BME280;14780;48.316;-1.050;2023-04-03T08:02:03;100041.00;;;23.46;36.81
18569;BME280;14780;48.316;-1.050;2023-04-03T08:04:49;100038.50;;;23.44;36.80
18569;BME280;14780;48.316;-1.050;2023-04-03T08:07:34;100046.69;;;23.44;36.76
18569;BME280;14780;48.316;-1.050;2023-04-03T08:10:20;100053.00;;;23.45;36.80
18569;BME280;14780;48.316;-1.050;2023-04-03T08:13:06;100052.16;;;23.44;36.72
18569;BME280;14780;48.316;-1.050;2023-04-03T08:15:51;100052.66;;;23.42;36.58
18569;BME280;14780;48.316;-1.050;2023-04-03T08:18:36;100044.72;;;23.40;36.67
18569;BME280;14780;48.316;-1.050;2023-04-03T08:21:21;100046.34;;;23.41;36.60
18569;BME280;14780;48.316;-1.050;2023-04-03T08:24:06;100053.47;;;23.42;36.65
18569;BME280;14780;48.316;-1.050;2023-04-03T08:26:50;100040.91;;;23.41;36.60
18569;BME280;14780;48.316;-1.050;2023-04-03T08:29:35;100043.88;;;23.39;36.59
18569;BME280;14780;48.316;-1.050;2023-04-03T08:32:22;100047.44;;;23.40;36.69
18569;BME280;14780;48.316;-1.050;2023-04-03T08:35:08;100044.94;;;23.38;36.61
18569;BME280;14780;48.316;-1.050;2023-04-03T08:37:53;100049.00;;;23.36;36.63
18569;BME280;14780;48.316;-1.050;2023-04-03T08:40:38;100058.25;;;23.35;36.58
18569;BME280;14780;48.316;-1.050;2023-04-03T08:43:54;100052.66;;;23.42;36.57
18569;BME280;14780;48.316;-1.050;2023-04-03T08:52:38;100039.47;;;23.38;36.34
18569;BME280;14780;48.316;-1.050;2023-04-03T08:55:34;100032.94;;;23.39;36.51
18569;BME280;14780;48.316;-1.050;2023-04-03T08:58:25;100034.59;;;23.40;36.51
18569;BME280;14780;48.316;-1.050;2023-04-03T09:01:37;100034.94;;;23.44;36.46
18569;BME280;14780;48.316;-1.050;2023-04-03T09:04:23;100032.47;;;23.42;36.34
18569;BME280;14780;48.316;-1.050;2023-04-03T09:07:21;100040.16;;;23.45;36.38
18569;BME280;14780;48.316;-1.050;2023-04-03T09:10:08;100032.19;;;23.44;36.42
18569;BME280;14780;48.316;-1.050;2023-04-03T09:13:19;100032.88;;;23.51;36.15
18569;BME280;14780;48.316;-1.050;2023-04-03T09:16:19;100034.63;;;23.57;36.25
18569;BME280;14780;48.316;-1.050;2023-04-03T09:25:18;100032.13;;;23.55;36.08
18569;BME280;14780;48.316;-1.050;2023-04-03T09:28:05;100025.34;;;23.58;36.15
18569;BME280;14780;48.316;-1.050;2023-04-03T09:30:54;100022.88;;;23.56;36.15
18569;BME280;14780;48.316;-1.050;2023-04-03T09:33:39;100012.75;;;23.57;36.07
18569;BME280;14780;48.316;-1.050;2023-04-03T09:37:02;100024.00;;;23.60;35.93
18569;BME280;14780;48.316;-1.050;2023-04-03T09:39:53;100013.59;;;23.57;35.98
18569;BME280;14780;48.316;-1.050;2023-04-03T09:42:41;100026.75;;;23.60;36.01
18569;BME280;14780;48.316;-1.050;2023-04-03T09:45:33;100016.91;;;23.59;36.04
18569;BME280;14780;48.316;-1.050;2023-04-03T09:48:22;100014.50;;;23.63;35.81
18569;BME280;14780;48.316;-1.050;2023-04-03T09:51:16;100018.06;;;23.63;36.11
18569;BME280;14780;48.316;-1.050;2023-04-03T09:54:00;100014.25;;;23.64;35.95
18569;BME280;14780;48.316;-1.050;2023-04-03T09:57:13;100018.66;;;23.65;35.91
18569;BME280;14780;48.316;-1.050;2023-04-03T10:00:00;100021.03;;;23.62;35.99
18569;BME280;14780;48.316;-1.050;2023-04-03T10:02:51;100019.72;;;23.64;35.98
18569;BME280;14780;48.316;-1.050;2023-04-03T10:05:39;100021.63;;;23.64;35.88
18569;BME280;14780;48.316;-1.050;2023-04-03T10:08:26;100015.06;;;23.65;36.03
18569;BME280;14780;48.316;-1.050;2023-04-03T10:11:20;100005.56;;;23.67;35.86
18569;BME280;14780;48.316;-1.050;2023-04-03T10:14:17;100009.94;;;23.68;35.82
18569;BME280;14780;48.316;-1.050;2023-04-03T10:20:45;99999.59;;;23.70;35.86
18569;BME280;14780;48.316;-1.050;2023-04-03T10:23:49;100007.81;;;23.70;35.75
18569;BME280;14780;48.316;-1.050;2023-04-03T10:26:57;100006.13;;;23.69;35.94
18569;BME280;14780;48.316;-1.050;2023-04-03T10:35:44;99995.84;;;23.76;35.78
18569;BME280;14780;48.316;-1.050;2023-04-03T10:41:53;99989.06;;;23.79;35.78
18569;BME280;14780;48.316;-1.050;2023-04-03T10:54:04;99968.53;;;23.76;35.56
18569;BME280;14780;48.316;-1.050;2023-04-03T10:56:57;99969.44;;;23.82;35.61
18569;BME280;14780;48.316;-1.050;2023-04-03T10:59:51;99957.09;;;23.79;35.61
18569;BME280;14780;48.316;-1.050;2023-04-03T11:02:45;99955.50;;;23.83;35.76
18569;BME280;14780;48.316;-1.050;2023-04-03T11:08:48;99949.59;;;23.86;35.54
18569;BME280;14780;48.316;-1.050;2023-04-03T11:11:38;99947.91;;;23.85;35.57
18569;BME280;14780;48.316;-1.050;2023-04-03T11:14:35;99949.16;;;23.94;35.75
18569;BME280;14780;48.316;-1.050;2023-04-03T11:17:26;99945.59;;;23.94;35.61
18569;BME280;14780;48.316;-1.050;2023-04-03T11:23:04;99946.75;;;23.98;35.70
18569;BME280;14780;48.316;-1.050;2023-04-03T11:25:53;99952.78;;;24.00;35.67
18569;BME280;14780;48.316;-1.050;2023-04-03T11:28:39;99950.94;;;24.05;35.84
18569;BME280;14780;48.316;-1.050;2023-04-03T11:40:08;99948.84;;;24.12;35.70
18569;BME280;14780;48.316;-1.050;2023-04-03T11:43:20;99950.78;;;24.12;35.76
18569;BME280;14780;48.316;-1.050;2023-04-03T11:46:07;99950.78;;;24.12;35.75
18569;BME280;14780;48.316;-1.050;2023-04-03T11:48:52;99943.13;;;24.14;35.67
18569;BME280;14780;48.316;-1.050;2023-04-03T11:51:41;99932.28;;;24.19;35.76
18569;BME280;14780;48.316;-1.050;2023-04-03T11:54:45;99924.38;;;24.22;35.83
18569;BME280;14780;48.316;-1.050;2023-04-03T12:12:36;99910.81;;;24.32;35.71
18569;BME280;14780;48.316;-1.050;2023-04-03T12:18:44;99917.16;;;24.38;35.62
18569;BME280;14780;48.316;-1.050;2023-04-03T12:24:38;99910.38;;;24.40;35.47
18569;BME280;14780;48.316;-1.050;2023-04-03T12:27:41;99903.06;;;24.46;35.73
18569;BME280;14780;48.316;-1.050;2023-04-03T12:30:30;99890.72;;;24.43;35.58
18569;BME280;14780;48.316;-1.050;2023-04-03T12:36:15;99898.41;;;24.46;35.55
18569;BME280;14780;48.316;-1.050;2023-04-03T12:39:25;99881.50;;;24.49;35.58
18569;BME280;14780;48.316;-1.050;2023-04-03T12:45:27;99884.78;;;24.51;35.45
18569;BME280;14780;48.316;-1.050;2023-04-03T12:48:22;99872.00;;;24.57;35.32
18569;BME280;14780;48.316;-1.050;2023-04-03T12:51:14;99872.84;;;24.57;35.50
18569;BME280;14780;48.316;-1.050;2023-04-03T12:57:26;99867.69;;;24.61;35.33
18569;BME280;14780;48.316;-1.050;2023-04-03T13:00:58;99861.94;;;24.62;35.49
18569;BME280;14780;48.316;-1.050;2023-04-03T13:03:45;99852.03;;;24.56;35.47
18569;BME280;14780;48.316;-1.050;2023-04-03T13:06:38;99852.81;;;24.78;35.18
18569;BME280;14780;48.316;-1.050;2023-04-03T13:09:28;99839.97;;;24.84;35.05
18569;BME280;14780;48.316;-1.050;2023-04-03T13:12:16;99847.09;;;24.85;34.92
18569;BME280;14780;48.316;-1.050;2023-04-03T13:15:12;99846.00;;;24.86;34.96
18569;BME280;14780;48.316;-1.050;2023-04-03T13:17:57;99844.38;;;24.85;34.91
18569;BME280;14780;48.316;-1.050;2023-04-03T13:20:42;99842.47;;;24.85;34.77
18569;BME280;14780;48.316;-1.050;2023-04-03T13:23:27;99834.81;;;24.87;34.77
18569;BME280;14780;48.316;-1.050;2023-04-03T13:26:16;99835.06;;;24.86;34.78
18569;BME280;14780;48.316;-1.050;2023-04-03T13:29:07;99833.72;;;24.88;34.78
18569;BME280;14780;48.316;-1.050;2023-04-03T13:32:03;99837.81;;;24.86;34.74
18569;BME280;14780;48.316;-1.050;2023-04-03T13:34:48;99832.88;;;24.83;34.78
18569;BME280;14780;48.316;-1.050;2023-04-03T13:37:34;99830.38;;;24.81;34.91
18569;BME280;14780;48.316;-1.050;2023-04-03T13:40:19;99831.53;;;24.85;34.80
18569;BME280;14780;48.316;-1.050;2023-04-03T13:43:14;99825.22;;;24.85;34.85
18569;BME280;14780;48.316;-1.050;2023-04-03T13:48:56;99827.16;;;24.89;34.68
18569;BME280;14780;48.316;-1.050;2023-04-03T13:51:41;99823.63;;;24.89;34.65
18569;BME280;14780;48.316;-1.050;2023-04-03T13:54:38;99816.22;;;24.89;34.76
18569;BME280;14780;48.316;-1.050;2023-04-03T13:57:24;99808.78;;;24.85;34.74
18569;BME280;14780;48.316;-1.050;2023-04-03T14:00:49;99815.66;;;24.87;34.74
18569;BME280;14780;48.316;-1.050;2023-04-03T14:03:56;99803.31;;;24.85;34.63
18569;BME280;14780;48.316;-1.050;2023-04-03T14:06:41;99806.03;;;24.85;34.70
18569;BME280;14780;48.316;-1.050;2023-04-03T14:09:27;99809.88;;;24.84;34.70
18569;BME280;14780;48.316;-1.050;2023-04-03T14:12:37;99801.91;;;24.82;34.70
18569;BME280;14780;48.316;-1.050;2023-04-03T14:15:27;99792.91;;;24.82;34.74
18569;BME280;14780;48.316;-1.050;2023-04-03T14:18:15;99793.69;;;24.82;34.65
18569;BME280;14780;48.316;-1.050;2023-04-03T14:21:00;99796.97;;;24.79;34.81
18569;BME280;14780;48.316;-1.050;2023-04-03T14:23:45;99789.28;;;24.76;34.89
18569;BME280;14780;48.316;-1.050;2023-04-03T14:26:30;99778.31;;;24.76;34.87
18569;BME280;14780;48.316;-1.050;2023-04-03T14:29:15;99785.44;;;24.77;34.72
18569;BME280;14780;48.316;-1.050;2023-04-03T14:32:00;99776.72;;;24.80;34.72
18569;BME280;14780;48.316;-1.050;2023-04-03T14:34:46;99779.22;;;24.82;34.69
18569;BME280;14780;48.316;-1.050;2023-04-03T14:37:31;99778.38;;;24.81;34.57
18569;BME280;14780;48.316;-1.050;2023-04-03T14:40:21;99781.66;;;24.78;34.69
18569;BME280;14780;48.316;-1.050;2023-04-03T14:43:08;99773.16;;;24.80;34.57
18569;BME280;14780;48.316;-1.050;2023-04-03T14:45:55;99781.09;;;24.81;34.61
18569;BME280;14780;48.316;-1.050;2023-04-03T14:48:40;99768.50;;;24.80;34.47
18569;BME280;14780;48.316;-1.050;2023-04-03T14:51:25;99765.78;;;24.80;34.50
18569;BME280;14780;48.316;-1.050;2023-04-03T14:54:14;99759.75;;;24.78;34.62
18569;BME280;14780;48.316;-1.050;2023-04-03T14:57:01;99761.91;;;24.76;34.59
18569;BME280;14780;48.316;-1.050;2023-04-03T14:59:46;99761.41;;;24.79;34.48
18569;BME280;14780;48.316;-1.050;2023-04-03T15:02:36;99749.09;;;24.82;34.46
18569;BME280;14780;48.316;-1.050;2023-04-03T15:05:22;99742.53;;;24.83;34.42
18569;BME280;14780;48.316;-1.050;2023-04-03T15:08:21;99741.19;;;24.85;34.35
18569;BME280;14780;48.316;-1.050;2023-04-03T15:11:07;99733.47;;;24.82;34.32
18569;BME280;14780;48.316;-1.050;2023-04-03T15:13:51;99728.00;;;24.82;34.30
18569;BME280;14780;48.316;-1.050;2023-04-03T15:16:36;99736.22;;;24.82;34.28
18569;BME280;14780;48.316;-1.050;2023-04-03T15:19:21;99732.41;;;24.83;34.34
18569;BME280;14780;48.316;-1.050;2023-04-03T15:22:06;99721.44;;;24.83;34.22
18569;BME280;14780;48.316;-1.050;2023-04-03T15:24:51;99725.03;;;24.84;34.32
18569;BME280;14780;48.316;-1.050;2023-04-03T15:27:36;99727.22;;;24.82;34.29
18569;BME280;14780;48.316;-1.050;2023-04-03T15:30:21;99722.28;;;24.84;34.14
18569;BME280;14780;48.316;-1.050;2023-04-03T15:33:06;99718.44;;;24.85;34.17
18569;BME280;14780;48.316;-1.050;2023-04-03T15:35:50;99718.19;;;24.86;34.05
18569;BME280;14780;48.316;-1.050;2023-04-03T15:38:35;99716.56;;;24.85;34.08
18569;BME280;14780;48.316;-1.050;2023-04-03T15:41:22;99724.75;;;24.85;34.17
18569;BME280;14780;48.316;-1.050;2023-04-03T15:44:07;99718.72;;;24.83;34.16
18569;BME280;14780;48.316;-1.050;2023-04-03T15:46:51;99713.22;;;24.83;34.02
18569;BME280;14780;48.316;-1.050;2023-04-03T15:49:36;99709.66;;;24.78;34.07
18569;BME280;14780;48.316;-1.050;2023-04-03T15:52:22;99714.28;;;24.77;34.15
18569;BME280;14780;48.316;-1.050;2023-04-03T15:55:07;99708.25;;;24.75;34.22